Time,TemperatureF,DewpointF,PressureIn,WindDirection,WindDirectionDegrees,WindSpeedMPH,WindSpeedGustMPH,Humidity,HourlyPrecipIn,Conditions,Clouds,dailyrainin,SoftwareType,DateUTC
2013-05-20 00:02:00,56.0,54.0,29.57,East,89,15.0,21.0,94,0.02,,,1.66,,2013-05-20 05:02:00,
2013-05-20 00:12:00,56.0,54.0,29.57,East,89,15.0,21.0,94,0.02,,,1.66,,2013-05-20 05:12:00,
2013-05-20 00:22:00,56.0,54.0,29.57,East,87,13.0,20.0,94,0.02,,,1.66,,2013-05-20 05:22:00,
2013-05-20 00:32:00,55.0,53.0,29.56,East,86,15.0,23.0,94,0.02,,,1.67,,2013-05-20 05:32:00,
2013-05-20 00:42:00,55.0,53.0,29.56,East,86,15.0,23.0,94,0.02,,,1.67,,2013-05-20 05:42:00,
2013-05-20 00:51:00,55.0,53.0,29.56,ENE,65,12.0,18.0,93,0.01,,,1.67,,2013-05-20 05:51:00,
2013-05-20 01:01:00,55.0,53.0,29.55,ENE,78,12.0,17.0,93,0.01,,,1.67,,2013-05-20 06:01:00,
2013-05-20 01:11:00,55.0,53.0,29.55,ENE,78,12.0,17.0,93,0.01,,,1.67,,2013-05-20 06:11:00,
2013-05-20 01:21:00,55.0,53.0,29.56,East,85,10.0,16.0,93,0.01,,,1.67,,2013-05-20 06:21:00,
2013-05-20 01:32:00,55.0,53.0,29.55,ENE,73,10.0,19.0,93,0.00,,,1.67,,2013-05-20 06:32:00,
2013-05-20 01:41:00,55.0,53.0,29.55,ENE,73,10.0,19.0,93,0.00,,,1.67,,2013-05-20 06:41:00,
2013-05-20 01:52:00,55.0,53.0,29.56,East,79,15.0,19.0,93,0.00,,,1.67,,2013-05-20 06:52:00,
2013-05-20 02:02:00,55.0,53.0,29.57,ENE,73,12.0,17.0,94,0.01,,,1.68,,2013-05-20 07:02:00,
2013-05-20 02:12:00,55.0,53.0,29.57,ENE,73,12.0,17.0,94,0.01,,,1.68,,2013-05-20 07:12:00,
2013-05-20 02:21:00,54.0,52.0,29.56,ENE,77,14.0,19.0,94,0.03,,,1.70,,2013-05-20 07:21:00,
2013-05-20 02:32:00,54.0,53.0,29.56,East,83,11.0,16.0,95,0.05,,,1.72,,2013-05-20 07:32:00,
2013-05-20 02:42:00,54.0,53.0,29.56,East,83,11.0,16.0,95,0.05,,,1.72,,2013-05-20 07:42:00,
2013-05-20 02:52:00,54.0,53.0,29.55,ENE,69,13.0,19.0,95,0.07,,,1.74,,2013-05-20 07:52:00,
2013-05-20 03:01:00,54.0,53.0,29.55,ENE,72,11.0,17.0,95,0.08,,,1.76,,2013-05-20 08:01:00,
2013-05-20 03:11:00,54.0,53.0,29.55,ENE,72,11.0,17.0,95,0.08,,,1.76,,2013-05-20 08:11:00,
2013-05-20 03:21:00,54.0,53.0,29.54,ENE,68,12.0,18.0,95,0.07,,,1.77,,2013-05-20 08:21:00,
2013-05-20 03:32:00,54.0,52.0,29.53,ENE,72,12.0,17.0,94,0.06,,,1.77,,2013-05-20 08:32:00,
2013-05-20 03:41:00,54.0,52.0,29.53,ENE,72,12.0,17.0,94,0.06,,,1.77,,2013-05-20 08:41:00,
2013-05-20 03:51:00,54.0,53.0,29.53,ENE,72,10.0,14.0,95,0.06,,,1.79,,2013-05-20 08:51:00,
2013-05-20 04:02:00,54.0,53.0,29.53,ENE,74,9.0,16.0,95,0.06,,,1.81,,2013-05-20 09:02:00,
2013-05-20 04:12:00,54.0,53.0,29.53,ENE,74,9.0,16.0,95,0.06,,,1.81,,2013-05-20 09:12:00,
2013-05-20 04:21:00,54.0,53.0,29.53,ENE,58,9.0,12.0,95,0.07,,,1.79,,2013-05-20 09:21:00,
2013-05-20 04:32:00,54.0,53.0,29.53,ENE,67,8.0,15.0,95,0.08,,,1.81,,2013-05-20 09:32:00,
2013-05-20 04:43:00,54.0,53.0,29.53,ENE,67,8.0,15.0,95,0.08,,,1.81,,2013-05-20 09:43:00,
2013-05-20 04:52:00,54.0,53.0,29.52,ENE,63,7.0,15.0,95,0.07,,,1.82,,2013-05-20 09:52:00,
2013-05-20 05:03:00,54.0,53.0,29.52,ENE,62,4.0,11.0,95,0.05,,,1.83,,2013-05-20 10:03:00,
2013-05-20 05:12:00,54.0,53.0,29.52,ENE,62,4.0,11.0,95,0.05,,,1.83,,2013-05-20 10:12:00,
2013-05-20 05:22:00,54.0,53.0,29.52,ENE,68,4.0,9.0,95,0.05,,,1.84,,2013-05-20 10:22:00,
2013-05-20 05:32:00,54.0,53.0,29.50,NE,52,4.0,8.0,96,0.04,,,1.42,,2013-05-20 10:32:00,
2013-05-20 05:42:00,54.0,53.0,29.50,NE,52,4.0,8.0,96,0.04,,,1.42,,2013-05-20 10:42:00,
2013-05-20 05:52:00,54.0,53.0,29.51,NE,46,6.0,15.0,96,0.06,,,1.45,,2013-05-20 10:52:00,
2013-05-20 06:02:00,54.0,53.0,29.51,North,5,4.0,10.0,97,0.07,,,1.47,,2013-05-20 11:02:00,
2013-05-20 06:12:00,54.0,53.0,29.51,North,5,4.0,10.0,97,0.07,,,1.47,,2013-05-20 11:12:00,
2013-05-20 06:21:00,54.0,53.0,29.50,North,7,5.0,11.0,97,0.07,,,1.45,,2013-05-20 11:21:00,
2013-05-20 06:32:00,53.0,52.0,29.50,ENE,69,5.0,12.0,97,0.07,,,1.46,,2013-05-20 11:32:00,
2013-05-20 06:41:00,53.0,52.0,29.50,ENE,69,5.0,12.0,97,0.07,,,1.46,,2013-05-20 11:41:00,
2013-05-20 06:51:00,53.0,52.0,29.49,ENE,70,6.0,10.0,97,0.07,,,1.49,,2013-05-20 11:51:00,
2013-05-20 07:01:00,53.0,52.0,29.49,ENE,62,6.0,10.0,97,0.07,,,1.51,,2013-05-20 12:01:00,
2013-05-20 07:11:00,53.0,52.0,29.49,ENE,62,6.0,10.0,97,0.07,,,1.51,,2013-05-20 12:11:00,
2013-05-20 07:21:00,53.0,52.0,29.49,ENE,68,5.0,13.0,97,0.08,,,1.30,,2013-05-20 12:21:00,
2013-05-20 07:32:00,53.0,52.0,29.49,NNE,19,4.0,11.0,97,0.08,,,1.31,,2013-05-20 12:32:00,
2013-05-20 07:41:00,53.0,52.0,29.49,NNE,19,4.0,11.0,97,0.08,,,1.31,,2013-05-20 12:41:00,
2013-05-20 07:52:00,53.0,52.0,29.49,NE,41,4.0,10.0,97,0.07,,,1.33,,2013-05-20 12:52:00,
2013-05-20 08:01:00,53.0,52.0,29.48,ENE,58,4.0,11.0,97,0.06,,,1.35,,2013-05-20 13:01:00,
2013-05-20 08:11:00,53.0,52.0,29.48,ENE,58,4.0,11.0,97,0.06,,,1.35,,2013-05-20 13:11:00,
2013-05-20 08:22:00,53.0,52.0,29.48,NE,40,4.0,10.0,97,0.06,,,1.14,,2013-05-20 13:22:00,
2013-05-20 08:31:00,53.0,52.0,29.48,NE,51,4.0,10.0,97,0.05,,,1.15,,2013-05-20 13:31:00,
2013-05-20 08:41:00,53.0,52.0,29.48,NE,51,4.0,10.0,97,0.05,,,1.15,,2013-05-20 13:41:00,
2013-05-20 08:52:00,54.0,53.0,29.47,NNW,346,6.0,12.0,98,0.05,,,1.17,,2013-05-20 13:52:00,
2013-05-20 09:01:00,54.0,53.0,29.47,NE,41,6.0,14.0,97,0.04,,,1.18,,2013-05-20 14:01:00,
2013-05-20 09:11:00,54.0,53.0,29.47,NE,41,6.0,14.0,97,0.04,,,1.18,,2013-05-20 14:11:00,
2013-05-20 09:22:00,54.0,53.0,29.48,ENE,67,8.0,-999.0,97,-99.99,,,-99.99,,2013-05-20 14:22:00,
2013-05-20 09:32:00,54.0,53.0,29.47,East,79,9.0,14.0,96,0.04,,,1.11,,2013-05-20 14:32:00,
2013-05-20 09:41:00,54.0,53.0,29.47,East,79,9.0,14.0,96,0.04,,,1.11,,2013-05-20 14:41:00,
2013-05-20 09:52:00,54.0,53.0,29.47,ENE,60,9.0,18.0,96,0.03,,,1.11,,2013-05-20 14:52:00,
2013-05-20 10:01:00,54.0,53.0,29.47,NE,46,8.0,17.0,96,0.03,,,1.12,,2013-05-20 15:01:00,
2013-05-20 10:11:00,54.0,53.0,29.47,NE,46,8.0,17.0,96,0.03,,,1.12,,2013-05-20 15:11:00,
2013-05-20 10:21:00,54.0,53.0,29.47,ENE,75,8.0,16.0,95,0.03,,,1.11,,2013-05-20 15:21:00,
2013-05-20 10:33:00,54.0,53.0,29.47,ENE,74,11.0,17.0,95,0.04,,,1.12,,2013-05-20 15:33:00,
2013-05-20 10:42:00,54.0,53.0,29.47,ENE,74,11.0,17.0,95,0.04,,,1.12,,2013-05-20 15:42:00,
2013-05-20 10:53:00,54.0,52.0,29.47,ENE,75,14.0,20.0,94,0.06,,,1.13,,2013-05-20 15:53:00,
2013-05-20 11:03:00,54.0,52.0,29.46,ENE,69,14.0,19.0,94,0.08,,,1.17,,2013-05-20 16:03:00,
2013-05-20 11:12:00,54.0,52.0,29.46,ENE,69,14.0,19.0,94,0.08,,,1.17,,2013-05-20 16:12:00,
2013-05-20 11:22:00,54.0,52.0,29.46,ENE,65,12.0,22.0,94,0.08,,,1.12,,2013-05-20 16:22:00,
2013-05-20 11:33:00,54.0,52.0,29.46,ENE,77,15.0,21.0,94,0.09,,,1.13,,2013-05-20 16:33:00,
2013-05-20 11:42:00,54.0,52.0,29.46,ENE,77,15.0,21.0,94,0.09,,,1.13,,2013-05-20 16:42:00,
2013-05-20 11:52:00,54.0,52.0,29.46,East,79,15.0,20.0,94,0.08,,,1.15,,2013-05-20 16:52:00,
2013-05-20 12:02:00,54.0,52.0,29.46,NE,56,14.0,20.0,94,0.08,,,1.18,,2013-05-20 17:02:00,
2013-05-20 12:12:00,54.0,52.0,29.46,NE,56,14.0,20.0,94,0.08,,,1.18,,2013-05-20 17:12:00,
2013-05-20 12:22:00,54.0,52.0,29.45,East,82,14.0,23.0,94,0.08,,,1.11,,2013-05-20 17:22:00,
2013-05-20 12:33:00,54.0,52.0,29.46,ENE,68,12.0,23.0,94,0.08,,,1.12,,2013-05-20 17:33:00,
2013-05-20 12:45:00,54.0,52.0,29.46,ENE,68,12.0,23.0,94,0.08,,,1.12,,2013-05-20 17:45:00,
2013-05-20 12:53:00,54.0,52.0,29.45,NE,56,14.0,22.0,93,0.09,,,1.15,,2013-05-20 17:53:00,
2013-05-20 13:02:00,54.0,52.0,29.46,ENE,72,13.0,22.0,94,0.09,,,1.18,,2013-05-20 18:02:00,
2013-05-20 13:12:00,54.0,52.0,29.46,ENE,72,13.0,22.0,94,0.09,,,1.18,,2013-05-20 18:12:00,
2013-05-20 13:23:00,54.0,52.0,29.46,ENE,73,13.0,22.0,93,0.08,,,0.83,,2013-05-20 18:23:00,
2013-05-20 13:32:00,54.0,52.0,29.45,ENE,71,13.0,21.0,93,0.07,,,0.84,,2013-05-20 18:32:00,
2013-05-20 13:42:00,54.0,52.0,29.45,ENE,71,13.0,21.0,93,0.07,,,0.84,,2013-05-20 18:42:00,
2013-05-20 13:55:00,54.0,52.0,29.46,ENE,58,10.0,19.0,94,0.08,,,0.88,,2013-05-20 18:55:00,
2013-05-20 14:04:00,53.0,52.0,29.46,ENE,72,9.0,14.0,95,0.11,,,0.93,,2013-05-20 19:04:00,
2013-05-20 14:11:00,53.0,52.0,29.46,ENE,72,9.0,14.0,95,0.11,,,0.93,,2013-05-20 19:11:00,
2013-05-20 14:21:00,53.0,52.0,29.46,NE,56,8.0,16.0,96,0.14,,,0.92,,2013-05-20 19:21:00,
2013-05-20 14:32:00,53.0,52.0,29.46,NNE,12,8.0,15.0,97,0.16,,,0.95,,2013-05-20 19:32:00,
2013-05-20 14:41:00,53.0,52.0,29.46,NNE,12,8.0,15.0,97,0.16,,,0.95,,2013-05-20 19:41:00,
2013-05-20 14:52:00,53.0,52.0,29.47,NE,47,7.0,16.0,97,0.14,,,0.98,,2013-05-20 19:52:00,
2013-05-20 15:01:00,53.0,52.0,29.46,NE,53,9.0,17.0,97,0.13,,,1.01,,2013-05-20 20:01:00,
2013-05-20 15:12:00,53.0,52.0,29.46,NE,53,9.0,17.0,97,0.13,,,1.01,,2013-05-20 20:12:00,
2013-05-20 15:21:00,53.0,52.0,29.47,ENE,68,10.0,16.0,97,0.12,,,1.04,,2013-05-20 20:21:00,
2013-05-20 15:32:00,53.0,52.0,29.47,NE,55,9.0,17.0,97,0.12,,,1.07,,2013-05-20 20:32:00,
2013-05-20 15:42:00,53.0,52.0,29.47,NE,55,9.0,17.0,97,0.12,,,1.07,,2013-05-20 20:42:00,
2013-05-20 15:51:00,53.0,52.0,29.47,ENE,60,7.0,16.0,97,0.11,,,1.09,,2013-05-20 20:51:00,
2013-05-20 16:01:00,53.0,52.0,29.47,NNE,13,6.0,11.0,97,0.11,,,1.12,,2013-05-20 21:01:00,
2013-05-20 16:11:00,53.0,52.0,29.47,NNE,13,6.0,11.0,97,0.11,,,1.12,,2013-05-20 21:11:00,
2013-05-20 16:21:00,52.0,51.0,29.47,ENE,65,8.0,16.0,97,0.10,,,1.14,,2013-05-20 21:21:00,
2013-05-20 16:33:00,52.0,51.0,29.47,NE,46,8.0,14.0,97,0.11,,,1.18,,2013-05-20 21:33:00,
2013-05-20 16:43:00,52.0,51.0,29.47,ENE,65,9.0,16.0,97,0.10,,,1.19,,2013-05-20 21:43:00,
2013-05-20 16:53:00,52.0,51.0,29.47,ENE,65,9.0,16.0,97,0.10,,,1.19,,2013-05-20 21:53:00,
2013-05-20 17:02:00,52.0,51.0,29.48,ENE,72,7.0,13.0,97,0.09,,,1.21,,2013-05-20 22:02:00,
2013-05-20 17:12:00,52.0,51.0,29.48,ENE,72,7.0,13.0,97,0.09,,,1.21,,2013-05-20 22:12:00,
2013-05-20 17:23:00,53.0,52.0,29.48,ENE,71,8.0,15.0,97,0.07,,,1.22,,2013-05-20 22:23:00,
2013-05-20 17:33:00,53.0,52.0,29.48,ENE,69,6.0,11.0,97,0.04,,,1.22,,2013-05-20 22:33:00,
2013-05-20 17:42:00,53.0,52.0,29.48,ENE,69,6.0,11.0,97,0.04,,,1.22,,2013-05-20 22:42:00,
2013-05-20 17:52:00,53.0,52.0,29.48,ENE,58,8.0,15.0,97,0.03,,,1.23,,2013-05-20 22:52:00,
2013-05-20 18:03:00,53.0,52.0,29.48,NE,46,8.0,15.0,97,0.03,,,1.24,,2013-05-20 23:03:00,
2013-05-20 18:12:00,53.0,52.0,29.48,NE,46,8.0,15.0,97,0.03,,,1.24,,2013-05-20 23:12:00,
2013-05-20 18:22:00,53.0,52.0,29.48,ENE,68,7.0,15.0,97,0.03,,,1.25,,2013-05-20 23:22:00,
2013-05-20 18:32:00,53.0,52.0,29.49,ENE,72,9.0,14.0,97,0.05,,,1.27,,2013-05-20 23:32:00,
2013-05-20 18:42:00,53.0,52.0,29.49,ENE,72,9.0,14.0,97,0.05,,,1.27,,2013-05-20 23:42:00,
2013-05-20 18:52:00,53.0,52.0,29.49,NE,55,6.0,17.0,97,0.09,,,1.32,,2013-05-20 23:52:00,
2013-05-20 19:01:00,52.0,51.0,29.49,ENE,70,11.0,20.0,97,0.13,,,1.37,,2013-05-21 00:01:00,
2013-05-20 19:11:00,52.0,51.0,29.49,ENE,70,11.0,20.0,97,0.13,,,1.37,,2013-05-21 00:11:00,
2013-05-20 19:21:00,52.0,51.0,29.49,NE,46,8.0,20.0,97,0.14,,,1.40,,2013-05-21 00:21:00,
2013-05-20 19:32:00,52.0,51.0,29.50,ENE,69,10.0,16.0,97,0.14,,,1.41,,2013-05-21 00:32:00,
2013-05-20 19:41:00,52.0,51.0,29.50,ENE,71,9.0,16.0,97,0.09,,,1.41,,2013-05-21 00:41:00,
2013-05-20 19:52:00,52.0,51.0,29.50,ENE,71,9.0,16.0,97,0.09,,,1.41,,2013-05-21 00:52:00,
2013-05-20 20:01:00,52.0,51.0,29.51,NE,51,10.0,17.0,96,0.04,,,1.41,,2013-05-21 01:01:00,
2013-05-20 20:11:00,52.0,51.0,29.51,NE,51,10.0,17.0,96,0.04,,,1.41,,2013-05-21 01:11:00,
2013-05-20 20:22:00,52.0,51.0,29.52,ENE,57,12.0,21.0,96,0.01,,,1.41,,2013-05-21 01:22:00,
2013-05-20 20:32:00,52.0,51.0,29.52,ENE,65,10.0,16.0,97,0.01,,,1.42,,2013-05-21 01:32:00,
2013-05-20 20:42:00,52.0,51.0,29.52,ENE,65,10.0,16.0,97,0.01,,,1.42,,2013-05-21 01:42:00,
2013-05-20 20:52:00,52.0,51.0,29.53,ENE,67,11.0,19.0,97,0.01,,,1.42,,2013-05-21 01:52:00,
2013-05-20 21:02:00,51.0,50.0,29.53,NE,50,8.0,19.0,97,0.01,,,1.42,,2013-05-21 02:02:00,
2013-05-20 21:11:00,51.0,50.0,29.53,NE,50,8.0,19.0,97,0.01,,,1.42,,2013-05-21 02:11:00,
2013-05-20 21:21:00,51.0,50.0,29.54,ENE,64,10.0,15.0,97,0.03,,,1.44,,2013-05-21 02:21:00,
2013-05-20 21:32:00,51.0,50.0,29.54,ENE,68,9.0,17.0,97,0.03,,,1.45,,2013-05-21 02:32:00,
2013-05-20 21:42:00,52.0,51.0,29.54,ENE,69,11.0,18.0,97,0.03,,,1.45,,2013-05-21 02:42:00,
2013-05-20 21:52:00,52.0,51.0,29.54,ENE,69,11.0,18.0,97,0.03,,,1.45,,2013-05-21 02:52:00,
2013-05-20 22:02:00,52.0,51.0,29.55,NE,52,11.0,20.0,97,0.03,,,1.45,,2013-05-21 03:02:00,
2013-05-20 22:11:00,52.0,51.0,29.55,NE,52,11.0,20.0,97,0.03,,,1.45,,2013-05-21 03:11:00,
2013-05-20 22:21:00,51.0,50.0,29.55,ENE,72,10.0,20.0,97,0.01,,,1.45,,2013-05-21 03:21:00,
2013-05-20 22:33:00,51.0,50.0,29.56,ENE,65,13.0,19.0,97,0.05,,,1.50,,2013-05-21 03:33:00,
2013-05-20 22:43:00,52.0,51.0,29.56,ENE,74,15.0,18.0,96,0.05,,,1.50,,2013-05-21 03:43:00,
2013-05-20 22:53:00,52.0,51.0,29.56,ENE,74,15.0,18.0,96,0.05,,,1.50,,2013-05-21 03:53:00,
2013-05-20 23:03:00,52.0,51.0,29.57,ENE,68,13.0,20.0,95,0.06,,,1.51,,2013-05-21 04:03:00,
2013-05-20 23:13:00,52.0,51.0,29.57,ENE,68,13.0,20.0,95,0.06,,,1.51,,2013-05-21 04:13:00,
2013-05-20 23:23:00,52.0,50.0,29.57,ENE,69,13.0,19.0,94,0.05,,,1.51,,2013-05-21 04:23:00,
2013-05-20 23:33:00,52.0,50.0,29.58,ENE,61,13.0,19.0,94,0.01,,,1.51,,2013-05-21 04:33:00,
2013-05-20 23:42:00,52.0,50.0,29.58,ENE,61,13.0,19.0,94,0.01,,,1.51,,2013-05-21 04:42:00,
2013-05-20 23:53:00,51.0,49.0,29.59,East,79,14.0,20.0,94,0.01,,,1.51,,2013-05-21 04:53:00,